Aérodrome :
LOGIN :

S'inscrire | Disclaimer

   EN    FR    IT 

 










Légende :    VFR   VFR Marginal   IFR   IFR Intensif   IFR Très Intensif
Visi : 
Plafond : 
>= 8 km
>= 3000ft
5 à 8 km
1000 à 3000 ft
1500m à 5 km
500 à 1000 ft
800 à 1500m
200 à 500 ft
< 800m
< 200 ft
Symboles :   Orages  Brouillard  Fortes neiges  Fortes précipitations  Vent > 20 kt
SIGMETs :   Divers  Orages  Givrage  Turbulence  Onde Orograph.  Cendres Volcan.






- Altitude de l'aérodrome : 1674 ft
- Code IATA : BRN


LSZB - Bern Belp

DERNIER METAR :
  • 290320Z AUTO VRB02KT 9999 SCT090 BKN095 05/03 Q1015

METARs EXPIRÉS :
  • 290250Z AUTO VRB01KT 9999 BKN090 05/03 Q1015
  • 290220Z AUTO VRB01KT 9999 BKN090 04/03 Q1015
  • 290150Z AUTO VRB01KT 9000 OVC095 04/03 Q1016
  • 290120Z AUTO VRB01KT 9999 FEW075 OVC095 04/02 Q1016
  • 290050Z AUTO VRB01KT 9999 FEW075 OVC095 04/03 Q1016

TAF TAF LSZB
Valide du 29 à 03h jusqu'au 29 à 12h UTC


290225Z 2903/2912 VRB03KT 9999 BKN070
BECMG 2909/2912 02010KT
ATIS : +41 22 417 40 76



MET'MAP, la Météo Aéronautique d'un coup d'oeil ! - Copyright ORBIFLY Décembre 2007 - Disclaimer

ORBIFLY MET'MAP TEAM :

Programmation & Développement : Alexandra Zaïnal
Sur une idée originale de : Baudouin d'Aumeries
Assistance à la programmation : Marc-Olivier Méhu
Soutien technique & logistique : Manuel Goepfert

Contact : metmap@orbifly.com




SOURCES & CREDITS :

   NOAA